sensor_id;sensor_type;location;lat;lon;timestamp;temperature;humidity
47414;DHT22;33163;0.000;0.000;2022-08-19T00:00:21;23.80;73.00
47414;DHT22;33163;0.000;0.000;2022-08-19T00:02:48;23.70;72.90
47414;DHT22;33163;0.000;0.000;2022-08-19T00:05:15;23.80;73.00
47414;DHT22;33163;0.000;0.000;2022-08-19T00:07:43;23.80;73.00
47414;DHT22;33163;0.000;0.000;2022-08-19T00:10:14;23.70;72.90
47414;DHT22;33163;0.000;0.000;2022-08-19T00:12:41;23.70;73.00
47414;DHT22;33163;0.000;0.000;2022-08-19T00:15:10;23.70;72.90
47414;DHT22;33163;0.000;0.000;2022-08-19T00:17:38;23.70;72.90
47414;DHT22;33163;0.000;0.000;2022-08-19T00:20:07;23.80;73.30
47414;DHT22;33163;0.000;0.000;2022-08-19T00:22:36;23.80;73.00
47414;DHT22;33163;0.000;0.000;2022-08-19T00:25:03;23.70;72.90
47414;DHT22;33163;0.000;0.000;2022-08-19T00:27:31;23.70;72.90
47414;DHT22;33163;0.000;0.000;2022-08-19T00:29:58;23.70;72.90
47414;DHT22;33163;0.000;0.000;2022-08-19T00:32:25;23.70;72.90
47414;DHT22;33163;0.000;0.000;2022-08-19T00:34:52;23.80;73.00
47414;DHT22;33163;0.000;0.000;2022-08-19T00:37:21;23.70;73.60
47414;DHT22;33163;0.000;0.000;2022-08-19T00:39:48;23.70;73.60
47414;DHT22;33163;0.000;0.000;2022-08-19T00:42:16;23.70;72.90
47414;DHT22;33163;0.000;0.000;2022-08-19T00:44:44;23.70;72.90
47414;DHT22;33163;0.000;0.000;2022-08-19T00:47:11;23.70;72.90
47414;DHT22;33163;0.000;0.000;2022-08-19T00:49:42;23.70;73.00
47414;DHT22;33163;0.000;0.000;2022-08-19T00:52:14;23.70;73.00
47414;DHT22;33163;0.000;0.000;2022-08-19T00:54:42;23.70;72.90
47414;DHT22;33163;0.000;0.000;2022-08-19T00:57:11;23.70;73.00
47414;DHT22;33163;0.000;0.000;2022-08-19T00:59:41;23.70;72.90
47414;DHT22;33163;0.000;0.000;2022-08-19T01:02:10;23.70;72.90
47414;DHT22;33163;0.000;0.000;2022-08-19T01:04:37;23.70;72.90
47414;DHT22;33163;0.000;0.000;2022-08-19T01:07:03;23.70;72.90
47414;DHT22;33163;0.000;0.000;2022-08-19T01:09:31;23.70;73.00
47414;DHT22;33163;0.000;0.000;2022-08-19T01:11:58;23.70;73.00
47414;DHT22;33163;0.000;0.000;2022-08-19T01:14:25;23.70;73.00
47414;DHT22;33163;0.000;0.000;2022-08-19T01:16:53;23.70;73.00
47414;DHT22;33163;0.000;0.000;2022-08-19T01:19:27;23.70;73.00
47414;DHT22;33163;0.000;0.000;2022-08-19T01:21:59;23.70;72.90
47414;DHT22;33163;0.000;0.000;2022-08-19T01:24:28;23.70;73.00
47414;DHT22;33163;0.000;0.000;2022-08-19T01:26:56;23.70;73.00
47414;DHT22;33163;0.000;0.000;2022-08-19T01:29:24;23.70;73.00
47414;DHT22;33163;0.000;0.000;2022-08-19T01:31:50;23.70;73.10
47414;DHT22;33163;0.000;0.000;2022-08-19T01:34:19;23.70;73.10
47414;DHT22;33163;0.000;0.000;2022-08-19T01:36:47;23.70;73.10
47414;DHT22;33163;0.000;0.000;2022-08-19T01:39:16;23.70;73.10
47414;DHT22;33163;0.000;0.000;2022-08-19T01:41:46;23.70;73.10
47414;DHT22;33163;0.000;0.000;2022-08-19T01:44:13;23.70;73.00
47414;DHT22;33163;0.000;0.000;2022-08-19T01:46:40;23.70;73.10
47414;DHT22;33163;0.000;0.000;2022-08-19T01:49:07;23.70;73.10
47414;DHT22;33163;0.000;0.000;2022-08-19T01:51:34;23.70;73.10
47414;DHT22;33163;0.000;0.000;2022-08-19T01:54:01;23.70;73.10
47414;DHT22;33163;0.000;0.000;2022-08-19T01:56:28;23.70;73.10
47414;DHT22;33163;0.000;0.000;2022-08-19T01:59:00;23.70;73.10
47414;DHT22;33163;0.000;0.000;2022-08-19T02:01:28;23.70;73.10
47414;DHT22;33163;0.000;0.000;2022-08-19T02:03:57;23.70;73.10
47414;DHT22;33163;0.000;0.000;2022-08-19T02:06:24;23.70;73.10
47414;DHT22;33163;0.000;0.000;2022-08-19T02:08:50;23.70;73.10
47414;DHT22;33163;0.000;0.000;2022-08-19T02:11:19;23.70;73.10
47414;DHT22;33163;0.000;0.000;2022-08-19T02:13:47;23.70;73.10
47414;DHT22;33163;0.000;0.000;2022-08-19T02:16:16;23.70;73.10
47414;DHT22;33163;0.000;0.000;2022-08-19T02:18:44;23.70;73.10
47414;DHT22;33163;0.000;0.000;2022-08-19T02:21:10;23.70;73.20
47414;DHT22;33163;0.000;0.000;2022-08-19T02:23:38;23.70;73.10
47414;DHT22;33163;0.000;0.000;2022-08-19T02:26:05;23.70;73.10
47414;DHT22;33163;0.000;0.000;2022-08-19T02:28:32;23.70;73.10
47414;DHT22;33163;0.000;0.000;2022-08-19T02:30:59;23.70;73.10
47414;DHT22;33163;0.000;0.000;2022-08-19T02:33:29;23.70;73.10
47414;DHT22;33163;0.000;0.000;2022-08-19T02:35:56;23.70;73.10
47414;DHT22;33163;0.000;0.000;2022-08-19T02:38:23;23.70;73.10
47414;DHT22;33163;0.000;0.000;2022-08-19T02:40:53;23.70;73.20
47414;DHT22;33163;0.000;0.000;2022-08-19T02:43:20;23.70;73.20
47414;DHT22;33163;0.000;0.000;2022-08-19T02:45:48;23.60;73.10
47414;DHT22;33163;0.000;0.000;2022-08-19T02:48:16;23.70;73.20
47414;DHT22;33163;0.000;0.000;2022-08-19T02:50:45;23.70;73.10
47414;DHT22;33163;0.000;0.000;2022-08-19T02:53:12;23.70;73.20
47414;DHT22;33163;0.000;0.000;2022-08-19T02:55:43;23.70;73.20
47414;DHT22;33163;0.000;0.000;2022-08-19T02:58:11;23.60;73.20
47414;DHT22;33163;0.000;0.000;2022-08-19T03:00:42;23.60;73.20
47414;DHT22;33163;0.000;0.000;2022-08-19T03:03:09;23.60;73.20
47414;DHT22;33163;0.000;0.000;2022-08-19T03:05:36;23.60;73.20
47414;DHT22;33163;0.000;0.000;2022-08-19T03:08:04;23.60;73.20
47414;DHT22;33163;0.000;0.000;2022-08-19T03:10:31;23.60;73.30
47414;DHT22;33163;0.000;0.000;2022-08-19T03:12:58;23.60;73.20
47414;DHT22;33163;0.000;0.000;2022-08-19T03:15:25;23.60;73.30
47414;DHT22;33163;0.000;0.000;2022-08-19T03:17:52;23.60;73.30
47414;DHT22;33163;0.000;0.000;2022-08-19T03:20:19;23.60;73.30
47414;DHT22;33163;0.000;0.000;2022-08-19T03:22:46;23.60;73.30
47414;DHT22;33163;0.000;0.000;2022-08-19T03:25:14;23.60;73.30
47414;DHT22;33163;0.000;0.000;2022-08-19T03:27:42;23.60;73.30
47414;DHT22;33163;0.000;0.000;2022-08-19T03:30:10;23.60;73.30
47414;DHT22;33163;0.000;0.000;2022-08-19T03:32:37;23.60;73.30
47414;DHT22;33163;0.000;0.000;2022-08-19T03:35:04;23.60;73.30
47414;DHT22;33163;0.000;0.000;2022-08-19T03:37:31;23.60;73.30
47414;DHT22;33163;0.000;0.000;2022-08-19T03:39:58;23.60;73.30
47414;DHT22;33163;0.000;0.000;2022-08-19T03:42:26;23.60;73.30
47414;DHT22;33163;0.000;0.000;2022-08-19T03:44:53;23.60;73.30
47414;DHT22;33163;0.000;0.000;2022-08-19T03:47:20;23.60;73.30
47414;DHT22;33163;0.000;0.000;2022-08-19T03:49:46;23.60;73.30
47414;DHT22;33163;0.000;0.000;2022-08-19T03:52:13;23.60;73.40
47414;DHT22;33163;0.000;0.000;2022-08-19T03:54:41;23.60;73.40
47414;DHT22;33163;0.000;0.000;2022-08-19T03:57:08;23.60;73.40
47414;DHT22;33163;0.000;0.000;2022-08-19T03:59:38;23.60;73.40
47414;DHT22;33163;0.000;0.000;2022-08-19T04:02:08;23.60;73.40
47414;DHT22;33163;0.000;0.000;2022-08-19T04:04:35;23.60;73.50
47414;DHT22;33163;0.000;0.000;2022-08-19T04:07:02;23.60;73.40
47414;DHT22;33163;0.000;0.000;2022-08-19T04:09:29;23.60;73.40
47414;DHT22;33163;0.000;0.000;2022-08-19T04:11:57;23.60;73.40
47414;DHT22;33163;0.000;0.000;2022-08-19T04:14:26;23.60;73.50
47414;DHT22;33163;0.000;0.000;2022-08-19T04:16:57;23.60;73.40
47414;DHT22;33163;0.000;0.000;2022-08-19T04:19:25;23.60;73.50
47414;DHT22;33163;0.000;0.000;2022-08-19T04:21:53;23.60;73.40
47414;DHT22;33163;0.000;0.000;2022-08-19T04:24:20;23.60;73.40
47414;DHT22;33163;0.000;0.000;2022-08-19T04:26:47;23.60;73.40
47414;DHT22;33163;0.000;0.000;2022-08-19T04:29:17;23.60;73.50
47414;DHT22;33163;0.000;0.000;2022-08-19T04:31:45;23.60;73.50
47414;DHT22;33163;0.000;0.000;2022-08-19T04:34:15;23.60;73.50
47414;DHT22;33163;0.000;0.000;2022-08-19T04:36:44;23.60;73.50
47414;DHT22;33163;0.000;0.000;2022-08-19T04:39:13;23.60;73.60
47414;DHT22;33163;0.000;0.000;2022-08-19T04:41:41;23.60;73.60
47414;DHT22;33163;0.000;0.000;2022-08-19T04:44:25;23.60;73.50
47414;DHT22;33163;0.000;0.000;2022-08-19T04:46:55;23.60;73.50
47414;DHT22;33163;0.000;0.000;2022-08-19T04:49:24;23.60;73.50
47414;DHT22;33163;0.000;0.000;2022-08-19T04:51:52;23.60;73.50
47414;DHT22;33163;0.000;0.000;2022-08-19T04:54:21;23.60;73.60
47414;DHT22;33163;0.000;0.000;2022-08-19T04:56:48;23.60;73.60
47414;DHT22;33163;0.000;0.000;2022-08-19T04:59:18;23.60;73.60
47414;DHT22;33163;0.000;0.000;2022-08-19T05:01:46;23.60;73.60
47414;DHT22;33163;0.000;0.000;2022-08-19T05:04:15;23.60;73.60
47414;DHT22;33163;0.000;0.000;2022-08-19T05:06:44;23.60;73.60
47414;DHT22;33163;0.000;0.000;2022-08-19T05:09:10;23.60;73.60
47414;DHT22;33163;0.000;0.000;2022-08-19T05:11:37;23.60;73.50
47414;DHT22;33163;0.000;0.000;2022-08-19T05:14:05;23.60;73.50
47414;DHT22;33163;0.000;0.000;2022-08-19T05:16:31;23.60;73.60
47414;DHT22;33163;0.000;0.000;2022-08-19T05:18:58;23.60;73.60
47414;DHT22;33163;0.000;0.000;2022-08-19T05:21:44;23.60;73.60
47414;DHT22;33163;0.000;0.000;2022-08-19T05:24:29;23.60;73.60
47414;DHT22;33163;0.000;0.000;2022-08-19T05:26:57;23.60;73.60
47414;DHT22;33163;0.000;0.000;2022-08-19T05:29:27;23.60;74.30
47414;DHT22;33163;0.000;0.000;2022-08-19T05:31:54;23.60;73.70
47414;DHT22;33163;0.000;0.000;2022-08-19T05:34:23;23.60;73.70
47414;DHT22;33163;0.000;0.000;2022-08-19T05:36:54;23.60;73.70
47414;DHT22;33163;0.000;0.000;2022-08-19T05:39:24;23.60;73.60
47414;DHT22;33163;0.000;0.000;2022-08-19T05:41:54;23.60;73.70
47414;DHT22;33163;0.000;0.000;2022-08-19T05:44:23;23.60;73.60
47414;DHT22;33163;0.000;0.000;2022-08-19T05:46:50;23.40;74.90
47414;DHT22;33163;0.000;0.000;2022-08-19T05:49:20;23.30;75.90
47414;DHT22;33163;0.000;0.000;2022-08-19T05:51:48;23.20;76.60
47414;DHT22;33163;0.000;0.000;2022-08-19T05:54:16;23.10;77.10
47414;DHT22;33163;0.000;0.000;2022-08-19T05:56:43;23.00;77.50
47414;DHT22;33163;0.000;0.000;2022-08-19T05:59:14;23.00;77.80
47414;DHT22;33163;0.000;0.000;2022-08-19T06:01:43;23.00;78.10
47414;DHT22;33163;0.000;0.000;2022-08-19T06:04:11;22.90;78.30
47414;DHT22;33163;0.000;0.000;2022-08-19T06:06:39;22.90;78.50
47414;DHT22;33163;0.000;0.000;2022-08-19T06:09:07;22.80;78.80
47414;DHT22;33163;0.000;0.000;2022-08-19T06:11:38;22.80;78.90
47414;DHT22;33163;0.000;0.000;2022-08-19T06:14:08;22.80;79.10
47414;DHT22;33163;0.000;0.000;2022-08-19T06:16:36;22.80;79.30
47414;DHT22;33163;0.000;0.000;2022-08-19T06:19:06;22.80;79.50
47414;DHT22;33163;0.000;0.000;2022-08-19T06:21:34;22.80;79.50
47414;DHT22;33163;0.000;0.000;2022-08-19T06:24:03;22.80;79.80
47414;DHT22;33163;0.000;0.000;2022-08-19T06:26:30;22.70;80.10
47414;DHT22;33163;0.000;0.000;2022-08-19T06:28:58;22.70;80.10
47414;DHT22;33163;0.000;0.000;2022-08-19T06:31:27;22.80;79.90
47414;DHT22;33163;0.000;0.000;2022-08-19T06:33:54;22.80;79.70
47414;DHT22;33163;0.000;0.000;2022-08-19T06:36:22;22.90;79.60
47414;DHT22;33163;0.000;0.000;2022-08-19T06:38:55;22.90;79.60
47414;DHT22;33163;0.000;0.000;2022-08-19T06:41:23;22.90;79.60
47414;DHT22;33163;0.000;0.000;2022-08-19T06:43:51;23.00;79.40
47414;DHT22;33163;0.000;0.000;2022-08-19T06:46:19;23.00;79.30
47414;DHT22;33163;0.000;0.000;2022-08-19T06:48:46;23.00;79.50
47414;DHT22;33163;0.000;0.000;2022-08-19T06:51:14;23.00;79.40
47414;DHT22;33163;0.000;0.000;2022-08-19T06:53:44;23.00;79.70
47414;DHT22;33163;0.000;0.000;2022-08-19T06:56:12;23.00;79.50
47414;DHT22;33163;0.000;0.000;2022-08-19T06:58:39;23.10;79.80
47414;DHT22;33163;0.000;0.000;2022-08-19T07:01:07;23.10;79.90
47414;DHT22;33163;0.000;0.000;2022-08-19T07:03:38;23.10;79.90
47414;DHT22;33163;0.000;0.000;2022-08-19T07:06:06;23.20;79.60
47414;DHT22;33163;0.000;0.000;2022-08-19T07:08:35;23.20;79.60
47414;DHT22;33163;0.000;0.000;2022-08-19T07:11:05;23.10;79.60
47414;DHT22;33163;0.000;0.000;2022-08-19T07:13:32;23.10;79.60
47414;DHT22;33163;0.000;0.000;2022-08-19T07:16:03;23.10;79.60
47414;DHT22;33163;0.000;0.000;2022-08-19T07:18:31;23.10;80.00
47414;DHT22;33163;0.000;0.000;2022-08-19T07:21:05;23.10;80.00
47414;DHT22;33163;0.000;0.000;2022-08-19T07:23:32;23.10;80.00
47414;DHT22;33163;0.000;0.000;2022-08-19T07:26:04;23.10;79.90
47414;DHT22;33163;0.000;0.000;2022-08-19T07:28:31;23.10;80.10
47414;DHT22;33163;0.000;0.000;2022-08-19T07:30:58;23.10;80.10
47414;DHT22;33163;0.000;0.000;2022-08-19T07:33:27;23.10;80.10
47414;DHT22;33163;0.000;0.000;2022-08-19T07:35:55;23.00;80.30
47414;DHT22;33163;0.000;0.000;2022-08-19T07:38:23;23.00;80.20
47414;DHT22;33163;0.000;0.000;2022-08-19T07:40:50;23.10;80.30
47414;DHT22;33163;0.000;0.000;2022-08-19T07:43:20;23.00;80.30
47414;DHT22;33163;0.000;0.000;2022-08-19T07:45:50;23.00;80.40
47414;DHT22;33163;0.000;0.000;2022-08-19T07:48:17;23.10;81.40
47414;DHT22;33163;0.000;0.000;2022-08-19T07:50:44;23.00;80.70
47414;DHT22;33163;0.000;0.000;2022-08-19T07:53:11;23.00;81.00
47414;DHT22;33163;0.000;0.000;2022-08-19T07:55:40;23.10;80.90
47414;DHT22;33163;0.000;0.000;2022-08-19T07:58:07;23.10;81.40
47414;DHT22;33163;0.000;0.000;2022-08-19T08:00:34;23.10;81.00
47414;DHT22;33163;0.000;0.000;2022-08-19T08:03:01;23.10;81.10
47414;DHT22;33163;0.000;0.000;2022-08-19T08:05:28;23.20;80.90
47414;DHT22;33163;0.000;0.000;2022-08-19T08:08:12;23.10;81.00
47414;DHT22;33163;0.000;0.000;2022-08-19T08:11:04;23.20;81.10
47414;DHT22;33163;0.000;0.000;2022-08-19T08:13:31;23.20;81.30
47414;DHT22;33163;0.000;0.000;2022-08-19T08:16:00;23.20;81.50
47414;DHT22;33163;0.000;0.000;2022-08-19T08:18:27;23.20;81.30
47414;DHT22;33163;0.000;0.000;2022-08-19T08:20:55;23.20;81.30
47414;DHT22;33163;0.000;0.000;2022-08-19T08:23:22;23.20;80.90
47414;DHT22;33163;0.000;0.000;2022-08-19T08:25:51;23.20;80.90
47414;DHT22;33163;0.000;0.000;2022-08-19T08:28:19;23.20;81.00
47414;DHT22;33163;0.000;0.000;2022-08-19T08:30:47;23.20;80.90
47414;DHT22;33163;0.000;0.000;2022-08-19T08:33:16;23.20;80.90
47414;DHT22;33163;0.000;0.000;2022-08-19T08:35:43;23.20;81.10
47414;DHT22;33163;0.000;0.000;2022-08-19T08:38:11;23.20;81.00
47414;DHT22;33163;0.000;0.000;2022-08-19T08:40:43;23.30;80.80
47414;DHT22;33163;0.000;0.000;2022-08-19T08:43:25;23.30;80.90
47414;DHT22;33163;0.000;0.000;2022-08-19T08:46:00;23.30;80.60
47414;DHT22;33163;0.000;0.000;2022-08-19T08:48:35;23.40;80.60
47414;DHT22;33163;0.000;0.000;2022-08-19T08:51:07;23.40;80.60
47414;DHT22;33163;0.000;0.000;2022-08-19T08:53:36;23.40;80.50
47414;DHT22;33163;0.000;0.000;2022-08-19T08:56:04;23.40;80.30
47414;DHT22;33163;0.000;0.000;2022-08-19T08:58:46;23.40;80.30
47414;DHT22;33163;0.000;0.000;2022-08-19T09:01:14;23.40;80.20
47414;DHT22;33163;0.000;0.000;2022-08-19T09:03:42;23.40;80.10
47414;DHT22;33163;0.000;0.000;2022-08-19T09:06:14;23.40;80.10
47414;DHT22;33163;0.000;0.000;2022-08-19T09:08:48;23.40;80.00
47414;DHT22;33163;0.000;0.000;2022-08-19T09:11:19;23.40;80.00
47414;DHT22;33163;0.000;0.000;2022-08-19T09:14:02;23.40;79.90
47414;DHT22;33163;0.000;0.000;2022-08-19T09:16:35;23.40;79.70
47414;DHT22;33163;0.000;0.000;2022-08-19T09:19:06;23.40;79.70
47414;DHT22;33163;0.000;0.000;2022-08-19T09:21:34;23.40;79.70
47414;DHT22;33163;0.000;0.000;2022-08-19T09:24:01;23.40;79.70
47414;DHT22;33163;0.000;0.000;2022-08-19T09:26:29;23.40;79.60
47414;DHT22;33163;0.000;0.000;2022-08-19T09:28:58;23.40;79.60
47414;DHT22;33163;0.000;0.000;2022-08-19T09:31:28;23.50;79.60
47414;DHT22;33163;0.000;0.000;2022-08-19T09:33:56;23.50;79.60
47414;DHT22;33163;0.000;0.000;2022-08-19T09:36:24;23.50;79.50
47414;DHT22;33163;0.000;0.000;2022-08-19T09:38:55;23.40;79.50
47414;DHT22;33163;0.000;0.000;2022-08-19T09:41:24;23.50;79.60
47414;DHT22;33163;0.000;0.000;2022-08-19T09:43:52;23.50;79.40
47414;DHT22;33163;0.000;0.000;2022-08-19T09:46:25;23.50;79.60
47414;DHT22;33163;0.000;0.000;2022-08-19T09:48:53;23.50;79.30
47414;DHT22;33163;0.000;0.000;2022-08-19T09:51:25;23.50;79.40
47414;DHT22;33163;0.000;0.000;2022-08-19T09:53:59;23.50;79.30
47414;DHT22;33163;0.000;0.000;2022-08-19T09:56:27;23.50;79.20
47414;DHT22;33163;0.000;0.000;2022-08-19T09:58:54;23.50;79.10
47414;DHT22;33163;0.000;0.000;2022-08-19T10:01:24;23.60;79.00
47414;DHT22;33163;0.000;0.000;2022-08-19T10:03:56;23.60;78.90
47414;DHT22;33163;0.000;0.000;2022-08-19T10:06:25;23.60;79.00
47414;DHT22;33163;0.000;0.000;2022-08-19T10:08:54;23.70;78.90
47414;DHT22;33163;0.000;0.000;2022-08-19T10:11:21;23.70;78.50
47414;DHT22;33163;0.000;0.000;2022-08-19T10:13:48;23.70;78.40
47414;DHT22;33163;0.000;0.000;2022-08-19T10:16:17;23.70;78.50
47414;DHT22;33163;0.000;0.000;2022-08-19T10:18:46;23.70;78.50
47414;DHT22;33163;0.000;0.000;2022-08-19T10:21:16;23.70;78.60
47414;DHT22;33163;0.000;0.000;2022-08-19T10:23:48;23.70;78.60
47414;DHT22;33163;0.000;0.000;2022-08-19T10:26:17;23.70;78.50
47414;DHT22;33163;0.000;0.000;2022-08-19T10:28:44;23.70;78.70
47414;DHT22;33163;0.000;0.000;2022-08-19T10:31:13;23.70;78.60
47414;DHT22;33163;0.000;0.000;2022-08-19T10:33:41;23.70;78.40
47414;DHT22;33163;0.000;0.000;2022-08-19T10:36:13;23.70;78.30
47414;DHT22;33163;0.000;0.000;2022-08-19T10:38:41;23.70;78.40
47414;DHT22;33163;0.000;0.000;2022-08-19T10:41:09;23.70;78.40
47414;DHT22;33163;0.000;0.000;2022-08-19T10:43:37;23.70;78.40
47414;DHT22;33163;0.000;0.000;2022-08-19T10:46:05;23.70;79.10
47414;DHT22;33163;0.000;0.000;2022-08-19T10:48:32;23.70;78.30
47414;DHT22;33163;0.000;0.000;2022-08-19T10:50:59;23.70;78.40
47414;DHT22;33163;0.000;0.000;2022-08-19T10:53:45;23.70;78.60
47414;DHT22;33163;0.000;0.000;2022-08-19T10:56:12;23.60;78.70
47414;DHT22;33163;0.000;0.000;2022-08-19T10:58:57;23.60;78.90
47414;DHT22;33163;0.000;0.000;2022-08-19T11:01:24;23.60;79.20
47414;DHT22;33163;0.000;0.000;2022-08-19T11:03:51;23.60;79.10
47414;DHT22;33163;0.000;0.000;2022-08-19T11:06:18;23.60;79.00
47414;DHT22;33163;0.000;0.000;2022-08-19T11:08:47;23.60;78.80
47414;DHT22;33163;0.000;0.000;2022-08-19T11:11:14;23.60;79.00
47414;DHT22;33163;0.000;0.000;2022-08-19T11:13:41;23.60;79.20
47414;DHT22;33163;0.000;0.000;2022-08-19T11:16:15;23.60;79.40
47414;DHT22;33163;0.000;0.000;2022-08-19T11:18:44;23.60;79.50
47414;DHT22;33163;0.000;0.000;2022-08-19T11:21:14;23.60;79.30
47414;DHT22;33163;0.000;0.000;2022-08-19T11:23:43;23.60;79.70
47414;DHT22;33163;0.000;0.000;2022-08-19T11:26:11;23.60;79.80
47414;DHT22;33163;0.000;0.000;2022-08-19T11:28:38;23.70;79.70
47414;DHT22;33163;0.000;0.000;2022-08-19T11:31:09;23.70;79.40
47414;DHT22;33163;0.000;0.000;2022-08-19T11:33:36;23.70;79.20
47414;DHT22;33163;0.000;0.000;2022-08-19T11:36:03;23.70;79.20
47414;DHT22;33163;0.000;0.000;2022-08-19T11:38:30;23.70;79.10
47414;DHT22;33163;0.000;0.000;2022-08-19T11:40:58;23.70;78.90
47414;DHT22;33163;0.000;0.000;2022-08-19T11:43:28;23.70;78.90
47414;DHT22;33163;0.000;0.000;2022-08-19T11:45:56;23.70;78.80
47414;DHT22;33163;0.000;0.000;2022-08-19T11:48:24;23.70;78.70
47414;DHT22;33163;0.000;0.000;2022-08-19T11:50:52;23.80;78.80
47414;DHT22;33163;0.000;0.000;2022-08-19T11:53:20;23.80;78.70
47414;DHT22;33163;0.000;0.000;2022-08-19T11:55:48;23.80;78.70
47414;DHT22;33163;0.000;0.000;2022-08-19T11:58:16;23.80;78.70
47414;DHT22;33163;0.000;0.000;2022-08-19T12:00:44;23.80;78.70
47414;DHT22;33163;0.000;0.000;2022-08-19T12:03:12;23.80;78.60
47414;DHT22;33163;0.000;0.000;2022-08-19T12:05:41;23.80;78.60
47414;DHT22;33163;0.000;0.000;2022-08-19T12:08:08;23.80;78.60
47414;DHT22;33163;0.000;0.000;2022-08-19T12:10:37;23.80;78.60
47414;DHT22;33163;0.000;0.000;2022-08-19T12:13:04;23.80;78.60
47414;DHT22;33163;0.000;0.000;2022-08-19T12:15:35;23.80;78.70
47414;DHT22;33163;0.000;0.000;2022-08-19T12:18:04;23.80;78.60
47414;DHT22;33163;0.000;0.000;2022-08-19T12:20:32;23.80;78.70
47414;DHT22;33163;0.000;0.000;2022-08-19T12:23:00;23.80;79.30
47414;DHT22;33163;0.000;0.000;2022-08-19T12:25:27;23.80;78.60
47414;DHT22;33163;0.000;0.000;2022-08-19T12:27:54;23.80;78.60
47414;DHT22;33163;0.000;0.000;2022-08-19T12:30:21;23.80;78.60
47414;DHT22;33163;0.000;0.000;2022-08-19T12:32:48;23.80;78.60
47414;DHT22;33163;0.000;0.000;2022-08-19T12:35:18;23.80;78.50
47414;DHT22;33163;0.000;0.000;2022-08-19T12:37:46;23.80;78.50
47414;DHT22;33163;0.000;0.000;2022-08-19T12:40:14;23.80;78.60
47414;DHT22;33163;0.000;0.000;2022-08-19T12:42:41;23.80;78.60
47414;DHT22;33163;0.000;0.000;2022-08-19T12:45:09;23.80;78.60
47414;DHT22;33163;0.000;0.000;2022-08-19T12:47:36;23.80;78.60
47414;DHT22;33163;0.000;0.000;2022-08-19T12:50:03;23.80;78.50
47414;DHT22;33163;0.000;0.000;2022-08-19T12:52:35;23.80;78.60
47414;DHT22;33163;0.000;0.000;2022-08-19T12:55:04;23.90;78.80
47414;DHT22;33163;0.000;0.000;2022-08-19T12:57:31;23.90;79.10
47414;DHT22;33163;0.000;0.000;2022-08-19T13:00:04;23.90;79.10
47414;DHT22;33163;0.000;0.000;2022-08-19T13:02:34;23.90;79.50
47414;DHT22;33163;0.000;0.000;2022-08-19T13:05:01;23.90;80.20
47414;DHT22;33163;0.000;0.000;2022-08-19T13:07:28;23.90;79.50
47414;DHT22;33163;0.000;0.000;2022-08-19T13:09:57;23.90;79.20
47414;DHT22;33163;0.000;0.000;2022-08-19T13:12:24;23.90;79.30
47414;DHT22;33163;0.000;0.000;2022-08-19T13:14:52;23.90;79.20
47414;DHT22;33163;0.000;0.000;2022-08-19T13:17:21;23.90;79.20
47414;DHT22;33163;0.000;0.000;2022-08-19T13:19:48;23.90;79.60
47414;DHT22;33163;0.000;0.000;2022-08-19T13:22:16;23.90;79.70
47414;DHT22;33163;0.000;0.000;2022-08-19T13:24:43;23.90;79.70
47414;DHT22;33163;0.000;0.000;2022-08-19T13:27:12;23.90;79.60
47414;DHT22;33163;0.000;0.000;2022-08-19T13:29:40;23.90;79.40
47414;DHT22;33163;0.000;0.000;2022-08-19T13:32:24;23.90;79.20
47414;DHT22;33163;0.000;0.000;2022-08-19T13:35:09;23.90;79.10
47414;DHT22;33163;0.000;0.000;2022-08-19T13:37:37;23.90;79.30
47414;DHT22;33163;0.000;0.000;2022-08-19T13:40:13;24.00;79.10
47414;DHT22;33163;0.000;0.000;2022-08-19T13:42:43;23.90;79.20
47414;DHT22;33163;0.000;0.000;2022-08-19T13:45:13;24.00;79.10
47414;DHT22;33163;0.000;0.000;2022-08-19T13:47:40;24.00;79.40
47414;DHT22;33163;0.000;0.000;2022-08-19T13:50:08;24.00;78.90
47414;DHT22;33163;0.000;0.000;2022-08-19T13:52:36;24.00;78.40
47414;DHT22;33163;0.000;0.000;2022-08-19T13:55:03;24.00;78.00
47414;DHT22;33163;0.000;0.000;2022-08-19T13:57:30;24.00;77.60
47414;DHT22;33163;0.000;0.000;2022-08-19T13:59:59;24.00;77.50
47414;DHT22;33163;0.000;0.000;2022-08-19T14:02:26;24.00;77.60
47414;DHT22;33163;0.000;0.000;2022-08-19T14:04:53;24.00;77.70
47414;DHT22;33163;0.000;0.000;2022-08-19T14:07:20;24.00;77.80
47414;DHT22;33163;0.000;0.000;2022-08-19T14:09:48;24.00;77.90
47414;DHT22;33163;0.000;0.000;2022-08-19T14:12:18;24.00;77.80
47414;DHT22;33163;0.000;0.000;2022-08-19T14:14:45;24.00;77.60
47414;DHT22;33163;0.000;0.000;2022-08-19T14:17:14;24.00;77.60
47414;DHT22;33163;0.000;0.000;2022-08-19T14:19:41;24.00;77.40
47414;DHT22;33163;0.000;0.000;2022-08-19T14:22:08;24.00;77.20
47414;DHT22;33163;0.000;0.000;2022-08-19T14:24:37;24.00;77.20
47414;DHT22;33163;0.000;0.000;2022-08-19T14:27:04;24.00;77.20
47414;DHT22;33163;0.000;0.000;2022-08-19T14:29:31;24.00;77.40
47414;DHT22;33163;0.000;0.000;2022-08-19T14:31:58;24.00;77.50
47414;DHT22;33163;0.000;0.000;2022-08-19T14:34:29;24.00;77.80
47414;DHT22;33163;0.000;0.000;2022-08-19T14:36:57;24.00;78.00
47414;DHT22;33163;0.000;0.000;2022-08-19T14:39:23;24.00;77.90
47414;DHT22;33163;0.000;0.000;2022-08-19T14:41:50;24.00;78.10
47414;DHT22;33163;0.000;0.000;2022-08-19T14:44:17;24.00;78.20
47414;DHT22;33163;0.000;0.000;2022-08-19T14:46:45;24.00;78.40
47414;DHT22;33163;0.000;0.000;2022-08-19T14:49:12;24.00;78.50
47414;DHT22;33163;0.000;0.000;2022-08-19T14:51:40;24.00;78.70
47414;DHT22;33163;0.000;0.000;2022-08-19T14:54:07;24.00;79.00
47414;DHT22;33163;0.000;0.000;2022-08-19T14:56:33;23.90;79.00
47414;DHT22;33163;0.000;0.000;2022-08-19T14:59:00;24.00;78.70
47414;DHT22;33163;0.000;0.000;2022-08-19T15:01:27;23.90;79.00
47414;DHT22;33163;0.000;0.000;2022-08-19T15:03:54;23.90;79.50
47414;DHT22;33163;0.000;0.000;2022-08-19T15:06:22;23.90;79.60
47414;DHT22;33163;0.000;0.000;2022-08-19T15:08:50;23.90;79.50
47414;DHT22;33163;0.000;0.000;2022-08-19T15:11:20;23.90;78.80
47414;DHT22;33163;0.000;0.000;2022-08-19T15:13:48;23.90;80.40
47414;DHT22;33163;0.000;0.000;2022-08-19T15:16:16;23.90;80.70
47414;DHT22;33163;0.000;0.000;2022-08-19T15:18:43;23.80;81.20
47414;DHT22;33163;0.000;0.000;2022-08-19T15:21:14;23.80;81.10
47414;DHT22;33163;0.000;0.000;2022-08-19T15:23:42;23.80;81.00
47414;DHT22;33163;0.000;0.000;2022-08-19T15:26:10;23.80;81.10
47414;DHT22;33163;0.000;0.000;2022-08-19T15:28:38;23.80;80.80
47414;DHT22;33163;0.000;0.000;2022-08-19T15:31:05;23.80;81.00
47414;DHT22;33163;0.000;0.000;2022-08-19T15:33:32;23.80;81.20
47414;DHT22;33163;0.000;0.000;2022-08-19T15:36:00;23.80;81.20
47414;DHT22;33163;0.000;0.000;2022-08-19T15:38:27;23.80;81.40
47414;DHT22;33163;0.000;0.000;2022-08-19T15:40:54;23.80;81.30
47414;DHT22;33163;0.000;0.000;2022-08-19T15:43:42;23.80;81.90
47414;DHT22;33163;0.000;0.000;2022-08-19T15:46:09;23.80;81.80
47414;DHT22;33163;0.000;0.000;2022-08-19T15:48:38;23.80;81.90
47414;DHT22;33163;0.000;0.000;2022-08-19T15:51:05;23.80;81.90
47414;DHT22;33163;0.000;0.000;2022-08-19T15:53:31;23.80;81.90